CTV722 WIII-WARR
Flight info
| Callsign | CTV722 |
|---|---|
| Flight time | 1h 1m |
| Altitude | 29000 |
| Route | CA T3 BA |
| Aircraft | A20N/M-SDE2E3FGHIRWXY/LB1 |
Departure
| Time | 2026-05-08 17:56 |
|---|---|
| Airport | Soekarno-Hatta International Airport (WIII) |
Arrival
| Time | 2026-05-08 18:57 |
|---|---|
| Airport | Juanda International Airport (WARR) |
| Time | Latitude | Longitude | Altitude | Speed | Heading |
|---|---|---|---|---|---|
| 2026-05-08 17:14 | -6.13256 | 106.65271 | 38 ft | 0 kts | 336° |
| 2026-05-08 17:36 | -6.13257 | 106.65271 | 38 ft | 1 kts | 336° |
| 2026-05-08 17:36 | -6.13262 | 106.65274 | 38 ft | 1 kts | 336° |
| 2026-05-08 17:37 | -6.13268 | 106.65276 | 38 ft | 1 kts | 333° |
| 2026-05-08 17:37 | -6.13273 | 106.65279 | 36 ft | 1 kts | 333° |
| 2026-05-08 17:37 | -6.13278 | 106.65282 | 35 ft | 1 kts | 333° |
| 2026-05-08 17:37 | -6.13284 | 106.65285 | 38 ft | 1 kts | 333° |
| 2026-05-08 17:38 | -6.13291 | 106.65288 | 38 ft | 1 kts | 329° |
| 2026-05-08 17:38 | -6.13300 | 106.65293 | 37 ft | 1 kts | 313° |
| 2026-05-08 17:38 | -6.13305 | 106.65299 | 36 ft | 1 kts | 297° |
| 2026-05-08 17:38 | -6.13308 | 106.65306 | 34 ft | 1 kts | 278° |
| 2026-05-08 17:39 | -6.13309 | 106.65314 | 34 ft | 1 kts | 250° |
| 2026-05-08 17:45 | -6.13309 | 106.65313 | 34 ft | 1 kts | 250° |
| 2026-05-08 17:45 | -6.13319 | 106.65285 | 36 ft | 7 kts | 250° |
| 2026-05-08 17:45 | -6.13354 | 106.65232 | 37 ft | 11 kts | 212° |
| 2026-05-08 17:45 | -6.13435 | 106.65242 | 38 ft | 12 kts | 159° |
| 2026-05-08 17:46 | -6.13493 | 106.65265 | 38 ft | 10 kts | 159° |
| 2026-05-08 17:46 | -6.13545 | 106.65285 | 38 ft | 0 kts | 159° |
| 2026-05-08 17:46 | -6.13560 | 106.65291 | 38 ft | 5 kts | 159° |
| 2026-05-08 17:46 | -6.13603 | 106.65308 | 38 ft | 9 kts | 159° |
| 2026-05-08 17:47 | -6.13656 | 106.65350 | 38 ft | 11 kts | 108° |
| 2026-05-08 17:47 | -6.13632 | 106.65434 | 38 ft | 15 kts | 68° |
| 2026-05-08 17:47 | -6.13588 | 106.65541 | 38 ft | 18 kts | 67° |
| 2026-05-08 17:47 | -6.13554 | 106.65624 | 37 ft | 20 kts | 67° |
| 2026-05-08 17:48 | -6.13527 | 106.65695 | 38 ft | 3 kts | 70° |
| 2026-05-08 17:48 | -6.13514 | 106.65730 | 38 ft | 8 kts | 70° |
| 2026-05-08 17:48 | -6.13490 | 106.65794 | 38 ft | 12 kts | 66° |
| 2026-05-08 17:48 | -6.13453 | 106.65883 | 38 ft | 15 kts | 68° |
| 2026-05-08 17:49 | -6.13409 | 106.65992 | 38 ft | 18 kts | 68° |
| 2026-05-08 17:49 | -6.13364 | 106.66105 | 38 ft | 16 kts | 68° |
| 2026-05-08 17:49 | -6.13319 | 106.66219 | 37 ft | 18 kts | 69° |
| 2026-05-08 17:49 | -6.13239 | 106.66272 | 38 ft | 16 kts | 354° |
| 2026-05-08 17:50 | -6.13171 | 106.66346 | 38 ft | 17 kts | 69° |
| 2026-05-08 17:50 | -6.13125 | 106.66464 | 38 ft | 20 kts | 68° |
| 2026-05-08 17:50 | -6.13070 | 106.66602 | 38 ft | 23 kts | 68° |
| 2026-05-08 17:50 | -6.13009 | 106.66755 | 38 ft | 25 kts | 68° |
| 2026-05-08 17:51 | -6.12940 | 106.66927 | 38 ft | 27 kts | 68° |
| 2026-05-08 17:51 | -6.12882 | 106.67076 | 38 ft | 24 kts | 68° |
| 2026-05-08 17:51 | -6.12837 | 106.67191 | 38 ft | 7 kts | 69° |
| 2026-05-08 17:51 | -6.12813 | 106.67252 | 38 ft | 11 kts | 69° |
| 2026-05-08 17:52 | -6.12784 | 106.67339 | 38 ft | 14 kts | 87° |
| 2026-05-08 17:52 | -6.12855 | 106.67399 | 38 ft | 12 kts | 161° |
| 2026-05-08 17:52 | -6.12867 | 106.67402 | 38 ft | 0 kts | 162° |
| 2026-05-08 17:53 | -6.12867 | 106.67403 | 38 ft | 1 kts | 162° |
| 2026-05-08 17:53 | -6.12885 | 106.67408 | 39 ft | 5 kts | 162° |
| 2026-05-08 17:54 | -6.12926 | 106.67425 | 39 ft | 8 kts | 160° |
| 2026-05-08 17:54 | -6.12990 | 106.67424 | 40 ft | 11 kts | 187° |
| 2026-05-08 17:54 | -6.13051 | 106.67378 | 39 ft | 12 kts | 248° |
| 2026-05-08 17:54 | -6.13066 | 106.67341 | 40 ft | 0 kts | 247° |
| 2026-05-08 17:55 | -6.13109 | 106.67234 | 40 ft | 38 kts | 248° |
| 2026-05-08 17:55 | -6.13310 | 106.66727 | 42 ft | 119 kts | 248° |
| 2026-05-08 17:55 | -6.13700 | 106.65745 | 108 ft | 177 kts | 248° |
| 2026-05-08 17:56 | -6.14176 | 106.64539 | 642 ft | 197 kts | 248° |
| 2026-05-08 17:56 | -6.14689 | 106.63252 | 1607 ft | 193 kts | 248° |
| 2026-05-08 17:56 | -6.15192 | 106.62004 | 2414 ft | 199 kts | 248° |
| 2026-05-08 17:56 | -6.15740 | 106.60646 | 2895 ft | 220 kts | 248° |
| 2026-05-08 17:57 | -6.16338 | 106.59159 | 3371 ft | 239 kts | 248° |
| 2026-05-08 17:57 | -6.16966 | 106.57589 | 4180 ft | 242 kts | 248° |
| 2026-05-08 17:57 | -6.17597 | 106.56006 | 5074 ft | 245 kts | 248° |
| 2026-05-08 17:57 | -6.18234 | 106.54409 | 5969 ft | 248 kts | 248° |
| 2026-05-08 17:58 | -6.18950 | 106.52806 | 6798 ft | 252 kts | 235° |
| 2026-05-08 17:58 | -6.20223 | 106.51624 | 7588 ft | 254 kts | 206° |
| 2026-05-08 17:58 | -6.21924 | 106.51199 | 8366 ft | 255 kts | 176° |
| 2026-05-08 17:58 | -6.23651 | 106.51608 | 9167 ft | 256 kts | 157° |
| 2026-05-08 17:59 | -6.25287 | 106.52363 | 9955 ft | 259 kts | 146° |
| 2026-05-08 17:59 | -6.26544 | 106.53607 | 10669 ft | 260 kts | 120° |
| 2026-05-08 17:59 | -6.27140 | 106.55322 | 11369 ft | 262 kts | 94° |
| 2026-05-08 17:59 | -6.26969 | 106.57154 | 11963 ft | 272 kts | 81° |
| 2026-05-08 18:00 | -6.27037 | 106.59125 | 12188 ft | 295 kts | 104° |
| 2026-05-08 18:00 | -6.28662 | 106.63258 | 12613 ft | 341 kts | 113° |
| 2026-05-08 18:00 | -6.29594 | 106.65518 | 12987 ft | 355 kts | 111° |
| 2026-05-08 18:01 | -6.30459 | 106.67801 | 13508 ft | 357 kts | 109° |
| 2026-05-08 18:01 | -6.31303 | 106.70176 | 14067 ft | 360 kts | 109° |
| 2026-05-08 18:01 | -6.32124 | 106.72565 | 14582 ft | 362 kts | 109° |
| 2026-05-08 18:01 | -6.32938 | 106.74965 | 15112 ft | 365 kts | 109° |
| 2026-05-08 18:02 | -6.33762 | 106.77398 | 15659 ft | 368 kts | 109° |
| 2026-05-08 18:02 | -6.34309 | 106.79014 | 16026 ft | 370 kts | 109° |
| 2026-05-08 18:02 | -6.35433 | 106.82325 | 16775 ft | 375 kts | 109° |
| 2026-05-08 18:02 | -6.36269 | 106.84789 | 17339 ft | 379 kts | 109° |
| 2026-05-08 18:03 | -6.37124 | 106.87308 | 17921 ft | 381 kts | 109° |
| 2026-05-08 18:03 | -6.37988 | 106.89853 | 18473 ft | 384 kts | 109° |
| 2026-05-08 18:03 | -6.38855 | 106.92405 | 18977 ft | 386 kts | 109° |
| 2026-05-08 18:03 | -6.39724 | 106.94965 | 19497 ft | 387 kts | 109° |
| 2026-05-08 18:04 | -6.40586 | 106.97505 | 20018 ft | 389 kts | 109° |
| 2026-05-08 18:04 | -6.41462 | 107.00085 | 20559 ft | 390 kts | 109° |
| 2026-05-08 18:04 | -6.42344 | 107.02682 | 21104 ft | 391 kts | 109° |
| 2026-05-08 18:04 | -6.43217 | 107.05258 | 21668 ft | 392 kts | 109° |
| 2026-05-08 18:05 | -6.44099 | 107.07857 | 22223 ft | 393 kts | 109° |
| 2026-05-08 18:05 | -6.44984 | 107.10467 | 22819 ft | 393 kts | 109° |
| 2026-05-08 18:05 | -6.45866 | 107.13070 | 23411 ft | 393 kts | 109° |
| 2026-05-08 18:05 | -6.46752 | 107.15685 | 23754 ft | 399 kts | 109° |
| 2026-05-08 18:06 | -6.47662 | 107.18371 | 23867 ft | 411 kts | 109° |
| 2026-05-08 18:06 | -6.48596 | 107.21129 | 23893 ft | 425 kts | 109° |
| 2026-05-08 18:06 | -6.49558 | 107.23972 | 23897 ft | 438 kts | 109° |
| 2026-05-08 18:06 | -6.50559 | 107.26929 | 23899 ft | 451 kts | 109° |
| 2026-05-08 18:07 | -6.51583 | 107.29957 | 23899 ft | 462 kts | 109° |
| 2026-05-08 18:07 | -6.52619 | 107.33019 | 23904 ft | 464 kts | 109° |
| 2026-05-08 18:07 | -6.53645 | 107.36053 | 23902 ft | 463 kts | 109° |
| 2026-05-08 18:07 | -6.54680 | 107.39116 | 23908 ft | 463 kts | 109° |
| 2026-05-08 18:08 | -6.55733 | 107.42234 | 23905 ft | 463 kts | 108° |
| 2026-05-08 18:08 | -6.56579 | 107.45311 | 23905 ft | 464 kts | 102° |
| 2026-05-08 18:08 | -6.57100 | 107.48515 | 23908 ft | 464 kts | 97° |
| 2026-05-08 18:08 | -6.57468 | 107.51736 | 23909 ft | 464 kts | 97° |
| 2026-05-08 18:09 | -6.57850 | 107.54966 | 23911 ft | 464 kts | 97° |
| 2026-05-08 18:09 | -6.58237 | 107.58197 | 23914 ft | 464 kts | 97° |
| 2026-05-08 18:09 | -6.58623 | 107.61415 | 23912 ft | 464 kts | 97° |
| 2026-05-08 18:09 | -6.59009 | 107.64648 | 23914 ft | 464 kts | 97° |
| 2026-05-08 18:10 | -6.59394 | 107.67870 | 24032 ft | 464 kts | 97° |
| 2026-05-08 18:10 | -6.59773 | 107.71053 | 24381 ft | 465 kts | 97° |
| 2026-05-08 18:10 | -6.60160 | 107.74302 | 24900 ft | 461 kts | 97° |
| 2026-05-08 18:10 | -6.60534 | 107.77451 | 25426 ft | 457 kts | 97° |
| 2026-05-08 18:11 | -6.60911 | 107.80629 | 25981 ft | 454 kts | 97° |
| 2026-05-08 18:11 | -6.61285 | 107.83775 | 26545 ft | 450 kts | 97° |
| 2026-05-08 18:11 | -6.61653 | 107.86881 | 27112 ft | 445 kts | 97° |
| 2026-05-08 18:11 | -6.62015 | 107.89930 | 27698 ft | 441 kts | 97° |
| 2026-05-08 18:12 | -6.62376 | 107.92974 | 28283 ft | 436 kts | 97° |
| 2026-05-08 18:12 | -6.62739 | 107.96028 | 28761 ft | 436 kts | 97° |
| 2026-05-08 18:12 | -6.63100 | 107.99079 | 28891 ft | 442 kts | 97° |
| 2026-05-08 18:12 | -6.63462 | 108.02138 | 28911 ft | 451 kts | 97° |
| 2026-05-08 18:13 | -6.64220 | 108.08547 | 28913 ft | 469 kts | 97° |
| 2026-05-08 18:13 | -6.65001 | 108.15160 | 28907 ft | 484 kts | 97° |
| 2026-05-08 18:14 | -6.65799 | 108.21930 | 28906 ft | 488 kts | 97° |
| 2026-05-08 18:14 | -6.66598 | 108.28707 | 28902 ft | 487 kts | 97° |
| 2026-05-08 18:15 | -6.67259 | 108.34330 | 28904 ft | 487 kts | 97° |
| 2026-05-08 18:15 | -6.68187 | 108.42222 | 28900 ft | 486 kts | 97° |
| 2026-05-08 18:16 | -6.68981 | 108.48990 | 28899 ft | 487 kts | 97° |
| 2026-05-08 18:16 | -6.69640 | 108.54607 | 28896 ft | 486 kts | 97° |
| 2026-05-08 18:17 | -6.70731 | 108.62452 | 28895 ft | 486 kts | 99° |
| 2026-05-08 18:17 | -6.71633 | 108.68049 | 28896 ft | 487 kts | 99° |
| 2026-05-08 18:18 | -6.72689 | 108.74774 | 28892 ft | 486 kts | 99° |
| 2026-05-08 18:18 | -6.73728 | 108.81519 | 28890 ft | 486 kts | 98° |
| 2026-05-08 18:19 | -6.74758 | 108.88239 | 28889 ft | 486 kts | 98° |
| 2026-05-08 18:19 | -6.75790 | 108.94979 | 28888 ft | 486 kts | 98° |
| 2026-05-08 18:20 | -6.76815 | 109.01671 | 28888 ft | 487 kts | 98° |
| 2026-05-08 18:20 | -6.77845 | 109.08407 | 28887 ft | 486 kts | 98° |
| 2026-05-08 18:21 | -6.78875 | 109.15150 | 28885 ft | 487 kts | 98° |
| 2026-05-08 18:21 | -6.79896 | 109.21840 | 28885 ft | 487 kts | 98° |
| 2026-05-08 18:22 | -6.80925 | 109.28589 | 28884 ft | 487 kts | 98° |
| 2026-05-08 18:22 | -6.81951 | 109.35326 | 28881 ft | 487 kts | 98° |
| 2026-05-08 18:23 | -6.82978 | 109.42074 | 28879 ft | 487 kts | 98° |
| 2026-05-08 18:23 | -6.83996 | 109.48764 | 28878 ft | 487 kts | 98° |
| 2026-05-08 18:24 | -6.85020 | 109.55510 | 28878 ft | 487 kts | 98° |
| 2026-05-08 18:24 | -6.86043 | 109.62250 | 28880 ft | 487 kts | 98° |
| 2026-05-08 18:25 | -6.87066 | 109.68998 | 28882 ft | 488 kts | 98° |
| 2026-05-08 18:25 | -6.88088 | 109.75740 | 28879 ft | 488 kts | 98° |
| 2026-05-08 18:26 | -6.89110 | 109.82500 | 28884 ft | 488 kts | 98° |
| 2026-05-08 18:26 | -6.90132 | 109.89259 | 28885 ft | 488 kts | 98° |
| 2026-05-08 18:27 | -6.90980 | 109.94875 | 28883 ft | 488 kts | 98° |
| 2026-05-08 18:27 | -6.92164 | 110.02722 | 28879 ft | 488 kts | 98° |
| 2026-05-08 18:28 | -6.93185 | 110.09496 | 28870 ft | 489 kts | 98° |
| 2026-05-08 18:28 | -6.94204 | 110.16264 | 28860 ft | 489 kts | 98° |
| 2026-05-08 18:29 | -6.95222 | 110.23028 | 28862 ft | 489 kts | 98° |
| 2026-05-08 18:29 | -6.96232 | 110.29748 | 28860 ft | 489 kts | 98° |
| 2026-05-08 18:30 | -6.97245 | 110.36526 | 28852 ft | 489 kts | 97° |
| 2026-05-08 18:30 | -6.97569 | 110.43363 | 28858 ft | 489 kts | 91° |
| 2026-05-08 18:31 | -6.97689 | 110.50205 | 28860 ft | 489 kts | 91° |
| 2026-05-08 18:31 | -6.97816 | 110.57055 | 28864 ft | 489 kts | 91° |
| 2026-05-08 18:32 | -6.97940 | 110.63913 | 28853 ft | 489 kts | 91° |
| 2026-05-08 18:32 | -6.98061 | 110.70766 | 28869 ft | 489 kts | 91° |
| 2026-05-08 18:33 | -6.98182 | 110.77611 | 28875 ft | 489 kts | 91° |
| 2026-05-08 18:33 | -6.98301 | 110.84438 | 28868 ft | 489 kts | 91° |
| 2026-05-08 18:34 | -6.98420 | 110.91292 | 28868 ft | 490 kts | 91° |
| 2026-05-08 18:34 | -6.98538 | 110.98141 | 28876 ft | 489 kts | 91° |
| 2026-05-08 18:35 | -6.98653 | 111.04934 | 28853 ft | 468 kts | 91° |
| 2026-05-08 18:35 | -6.98706 | 111.08123 | 28867 ft | 441 kts | 91° |
| 2026-05-08 18:35 | -6.98756 | 111.11115 | 28867 ft | 415 kts | 91° |
| 2026-05-08 18:36 | -6.98804 | 111.13952 | 28862 ft | 391 kts | 91° |
| 2026-05-08 18:36 | -6.98848 | 111.16570 | 28873 ft | 368 kts | 91° |
| 2026-05-08 18:36 | -6.98934 | 111.21723 | 28874 ft | 373 kts | 91° |
| 2026-05-08 18:37 | -6.99020 | 111.26922 | 28702 ft | 369 kts | 91° |
| 2026-05-08 18:37 | -6.99063 | 111.29504 | 28358 ft | 367 kts | 91° |
| 2026-05-08 18:37 | -6.99104 | 111.32068 | 27930 ft | 365 kts | 91° |
| 2026-05-08 18:38 | -6.99145 | 111.34621 | 27485 ft | 363 kts | 91° |
| 2026-05-08 18:38 | -6.99186 | 111.37148 | 27062 ft | 361 kts | 91° |
| 2026-05-08 18:38 | -6.99226 | 111.39665 | 26644 ft | 358 kts | 92° |
| 2026-05-08 18:38 | -6.99434 | 111.42149 | 26230 ft | 355 kts | 101° |
| 2026-05-08 18:39 | -7.00000 | 111.44558 | 25823 ft | 352 kts | 108° |
| 2026-05-08 18:39 | -7.00688 | 111.46918 | 25432 ft | 349 kts | 107° |
| 2026-05-08 18:39 | -7.01355 | 111.49256 | 25111 ft | 345 kts | 107° |
| 2026-05-08 18:39 | -7.02002 | 111.51544 | 24961 ft | 335 kts | 107° |
| 2026-05-08 18:40 | -7.02636 | 111.53788 | 24544 ft | 335 kts | 107° |
| 2026-05-08 18:40 | -7.03267 | 111.56020 | 24126 ft | 335 kts | 108° |
| 2026-05-08 18:40 | -7.03923 | 111.58331 | 23688 ft | 352 kts | 108° |
| 2026-05-08 18:40 | -7.04604 | 111.60733 | 23199 ft | 359 kts | 108° |
| 2026-05-08 18:41 | -7.05288 | 111.63147 | 22673 ft | 359 kts | 108° |
| 2026-05-08 18:41 | -7.05973 | 111.65571 | 22166 ft | 358 kts | 108° |
| 2026-05-08 18:41 | -7.06655 | 111.67982 | 21677 ft | 358 kts | 108° |
| 2026-05-08 18:41 | -7.07335 | 111.70384 | 21185 ft | 357 kts | 107° |
| 2026-05-08 18:42 | -7.08017 | 111.72795 | 20703 ft | 356 kts | 107° |
| 2026-05-08 18:42 | -7.08695 | 111.75192 | 20234 ft | 355 kts | 107° |
| 2026-05-08 18:42 | -7.09370 | 111.77580 | 19773 ft | 354 kts | 107° |
| 2026-05-08 18:42 | -7.10045 | 111.79966 | 19314 ft | 353 kts | 107° |
| 2026-05-08 18:43 | -7.10716 | 111.82338 | 18863 ft | 352 kts | 107° |
| 2026-05-08 18:43 | -7.11386 | 111.84707 | 18418 ft | 351 kts | 107° |
| 2026-05-08 18:43 | -7.12045 | 111.87038 | 17956 ft | 350 kts | 107° |
| 2026-05-08 18:43 | -7.12708 | 111.89383 | 17455 ft | 349 kts | 107° |
| 2026-05-08 18:44 | -7.13372 | 111.91731 | 16956 ft | 348 kts | 107° |
| 2026-05-08 18:44 | -7.14034 | 111.94070 | 16464 ft | 347 kts | 107° |
| 2026-05-08 18:44 | -7.14692 | 111.96402 | 15981 ft | 345 kts | 107° |
| 2026-05-08 18:44 | -7.15348 | 111.98722 | 15509 ft | 344 kts | 107° |
| 2026-05-08 18:45 | -7.16138 | 112.00990 | 15041 ft | 342 kts | 114° |
| 2026-05-08 18:45 | -7.17090 | 112.03182 | 14579 ft | 341 kts | 114° |
| 2026-05-08 18:45 | -7.18033 | 112.05373 | 14128 ft | 340 kts | 114° |
| 2026-05-08 18:45 | -7.18969 | 112.07557 | 13679 ft | 339 kts | 114° |
| 2026-05-08 18:46 | -7.19900 | 112.09736 | 13170 ft | 338 kts | 114° |
| 2026-05-08 18:46 | -7.20825 | 112.11903 | 12686 ft | 337 kts | 114° |
| 2026-05-08 18:46 | -7.21750 | 112.14067 | 12179 ft | 335 kts | 114° |
| 2026-05-08 18:46 | -7.22672 | 112.16224 | 11693 ft | 334 kts | 114° |
| 2026-05-08 18:47 | -7.23589 | 112.18370 | 11208 ft | 332 kts | 114° |
| 2026-05-08 18:47 | -7.24501 | 112.20503 | 10736 ft | 331 kts | 113° |
| 2026-05-08 18:47 | -7.25397 | 112.22600 | 10286 ft | 330 kts | 113° |
| 2026-05-08 18:47 | -7.26303 | 112.24719 | 9826 ft | 328 kts | 113° |
| 2026-05-08 18:48 | -7.27204 | 112.26827 | 9336 ft | 327 kts | 113° |
| 2026-05-08 18:48 | -7.28100 | 112.28927 | 8836 ft | 325 kts | 113° |
| 2026-05-08 18:48 | -7.28993 | 112.31018 | 8340 ft | 323 kts | 113° |
| 2026-05-08 18:48 | -7.29756 | 112.33104 | 7847 ft | 313 kts | 105° |
| 2026-05-08 18:49 | -7.30206 | 112.35219 | 7379 ft | 304 kts | 101° |
| 2026-05-08 18:49 | -7.30611 | 112.37283 | 6904 ft | 297 kts | 101° |
| 2026-05-08 18:49 | -7.31015 | 112.39298 | 6440 ft | 290 kts | 101° |
| 2026-05-08 18:49 | -7.31413 | 112.41266 | 5961 ft | 284 kts | 102° |
| 2026-05-08 18:50 | -7.31801 | 112.43192 | 5505 ft | 277 kts | 102° |
| 2026-05-08 18:50 | -7.32181 | 112.45075 | 5078 ft | 271 kts | 102° |
| 2026-05-08 18:50 | -7.32551 | 112.46917 | 4657 ft | 266 kts | 102° |
| 2026-05-08 18:50 | -7.32914 | 112.48720 | 4194 ft | 261 kts | 102° |
| 2026-05-08 18:51 | -7.33273 | 112.50501 | 3772 ft | 257 kts | 102° |
| 2026-05-08 18:51 | -7.33624 | 112.52241 | 3473 ft | 247 kts | 102° |
| 2026-05-08 18:51 | -7.33955 | 112.53888 | 3339 ft | 232 kts | 101° |
| 2026-05-08 18:51 | -7.34234 | 112.55422 | 3226 ft | 214 kts | 100° |
| 2026-05-08 18:52 | -7.34467 | 112.56830 | 3128 ft | 199 kts | 99° |
| 2026-05-08 18:52 | -7.34682 | 112.58162 | 3027 ft | 191 kts | 99° |
| 2026-05-08 18:52 | -7.34898 | 112.59501 | 2946 ft | 193 kts | 99° |
| 2026-05-08 18:52 | -7.35112 | 112.60832 | 2868 ft | 191 kts | 99° |
| 2026-05-08 18:53 | -7.35315 | 112.62094 | 2802 ft | 177 kts | 99° |
| 2026-05-08 18:53 | -7.35508 | 112.63292 | 2607 ft | 167 kts | 99° |
| 2026-05-08 18:53 | -7.35685 | 112.64394 | 2427 ft | 153 kts | 99° |
| 2026-05-08 18:53 | -7.35858 | 112.65464 | 2245 ft | 157 kts | 99° |
| 2026-05-08 18:54 | -7.36031 | 112.66541 | 2045 ft | 152 kts | 99° |
| 2026-05-08 18:54 | -7.36197 | 112.67576 | 1858 ft | 150 kts | 99° |
| 2026-05-08 18:54 | -7.36363 | 112.68606 | 1677 ft | 148 kts | 99° |
| 2026-05-08 18:54 | -7.36529 | 112.69637 | 1484 ft | 148 kts | 99° |
| 2026-05-08 18:55 | -7.36857 | 112.71674 | 1099 ft | 148 kts | 99° |
| 2026-05-08 18:55 | -7.37022 | 112.72698 | 917 ft | 148 kts | 99° |
| 2026-05-08 18:55 | -7.37187 | 112.73725 | 737 ft | 148 kts | 99° |
| 2026-05-08 18:56 | -7.37352 | 112.74755 | 559 ft | 149 kts | 99° |
| 2026-05-08 18:56 | -7.37520 | 112.75793 | 369 ft | 150 kts | 99° |
| 2026-05-08 18:56 | -7.37702 | 112.76927 | 159 ft | 186 kts | 100° |
| 2026-05-08 18:56 | -7.37910 | 112.78251 | 24 ft | 173 kts | 99° |
| 2026-05-08 18:57 | -7.38065 | 112.79198 | 21 ft | 97 kts | 99° |
| 2026-05-08 18:57 | -7.38116 | 112.79514 | 17 ft | 39 kts | 99° |
| 2026-05-08 18:57 | -7.38153 | 112.79741 | 16 ft | 31 kts | 99° |
| 2026-05-08 18:57 | -7.38186 | 112.79943 | 15 ft | 11 kts | 95° |
| 2026-05-08 18:58 | -7.38166 | 112.80015 | 15 ft | 12 kts | 43° |
| 2026-05-08 18:58 | -7.38079 | 112.80036 | 16 ft | 5 kts | 2° |
| 2026-05-08 18:59 | -7.38055 | 112.80034 | 16 ft | 10 kts | 348° |
| 2026-05-08 18:59 | -7.38010 | 112.79945 | 16 ft | 20 kts | 279° |
| 2026-05-08 18:59 | -7.37977 | 112.79806 | 18 ft | 14 kts | 303° |
| 2026-05-08 19:00 | -7.37907 | 112.79785 | 18 ft | 19 kts | 10° |
| 2026-05-08 19:00 | -7.37789 | 112.79710 | 18 ft | 17 kts | 280° |
| 2026-05-08 19:00 | -7.37765 | 112.79556 | 17 ft | 27 kts | 279° |
| 2026-05-08 19:00 | -7.37720 | 112.79449 | 17 ft | 16 kts | 342° |
| 2026-05-08 19:01 | -7.37648 | 112.79457 | 20 ft | 4 kts | 7° |
| 2026-05-08 19:01 | -7.37592 | 112.79468 | 17 ft | 0 kts | 8° |
| 2026-05-08 19:01 | -7.37585 | 112.79469 | 17 ft | 0 kts | 8° |